Time;durP1;ratioP1;P1;durP2;ratioP2;P2;SDS_P1;SDS_P2;PMS_P1;PMS_P2;Temp;Humidity;BMP_temperature;BMP_pressure;BME280_temperature;BME280_humidity;BME280_pressure;Samples;Min_cycle;Max_cycle;Signal;HPM_P1;HPM_P2
2023/06/13 00:01:48;;;;;;;10.70;3.88;;;13.10;99.90;;;;;;5081588;28;20048;-62
2023/06/13 00:04:26;;;;;;;6.18;3.88;;;13.10;99.90;;;;;;5070900;28;20421;-62
2023/06/13 00:06:57;;;;;;;6.22;3.75;;;13.00;99.90;;;;;;5070861;28;20080;-61
2023/06/13 00:09:28;;;;;;;5.43;3.55;;;13.10;99.90;;;;;;5075914;28;20505;-61
2023/06/13 00:11:56;;;;;;;8.73;3.83;;;13.00;99.90;;;;;;5073972;28;20060;-61
2023/06/13 00:14:23;;;;;;;5.93;3.38;;;12.90;99.90;;;;;;5075804;28;20064;-62
2023/06/13 00:16:50;;;;;;;8.20;4.38;;;12.80;99.90;;;;;;5073995;28;20120;-61
2023/06/13 00:19:19;;;;;;;4.43;3.42;;;12.80;99.90;;;;;;5073928;28;20451;-61
2023/06/13 00:21:46;;;;;;;4.75;3.55;;;12.80;99.90;;;;;;5076828;28;20102;-61
2023/06/13 00:24:13;;;;;;;5.30;3.65;;;12.80;99.90;;;;;;5085919;28;20028;-62
2023/06/13 00:26:40;;;;;;;;;;;12.70;99.90;;;;;;5093359;28;20108;-62
2023/06/13 00:29:06;;;;;;;5.88;3.53;;;12.60;99.90;;;;;;5086685;28;19930;-61
2023/06/13 00:31:33;;;;;;;8.68;3.40;;;12.60;99.90;;;;;;5060368;28;20056;-61
2023/06/13 00:34:01;;;;;;;6.50;3.50;;;12.50;99.90;;;;;;5076034;28;20161;-62
2023/06/13 00:36:28;;;;;;;7.07;3.72;;;12.50;99.90;;;;;;5062887;28;20048;-62
2023/06/13 00:38:56;;;;;;;6.07;4.03;;;12.50;99.90;;;;;;5071664;28;20125;-61
2023/06/13 00:41:24;;;;;;;5.55;3.95;;;12.40;99.90;;;;;;5078740;28;20694;-62
2023/06/13 00:43:51;;;;;;;;;;;12.30;99.90;;;;;;5072631;28;20401;-61
2023/06/13 00:46:24;;;;;;;6.60;3.78;;;12.30;99.90;;;;;;5064359;28;19920;-61
2023/06/13 00:48:51;;;;;;;6.97;4.00;;;12.20;99.90;;;;;;5073227;28;20512;-60
2023/06/13 00:51:20;;;;;;;8.30;3.47;;;12.10;99.90;;;;;;5061345;28;20048;-61
2023/06/13 00:53:48;;;;;;;9.85;4.18;;;12.10;99.90;;;;;;5084026;28;20059;-62
2023/06/13 00:56:16;;;;;;;5.88;4.13;;;12.10;99.90;;;;;;5079940;28;20040;-60
2023/06/13 00:58:43;;;;;;;5.93;3.63;;;12.00;99.90;;;;;;5072851;28;20052;-61
2023/06/13 01:01:13;;;;;;;9.52;4.10;;;12.10;99.90;;;;;;5064347;28;20516;-61
2023/06/13 01:03:45;;;;;;;7.05;4.10;;;12.00;99.90;;;;;;5057914;28;20047;-60
2023/06/13 01:06:14;;;;;;;7.13;3.78;;;11.90;99.90;;;;;;5059649;28;20478;-62
2023/06/13 01:08:41;;;;;;;7.05;4.13;;;11.90;99.90;;;;;;5091727;28;20048;-60
2023/06/13 01:11:31;;;;;;;6.25;4.10;;;11.90;99.90;;;;;;5055076;28;20041;-62
2023/06/13 01:14:14;;;;;;;7.63;3.75;;;11.80;99.90;;;;;;5072928;28;22611;-61
2023/06/13 01:16:47;;;;;;;5.47;3.78;;;11.80;99.90;;;;;;5072403;28;20079;-62
2023/06/13 01:19:37;;;;;;;10.27;3.92;;;11.80;99.90;;;;;;5071482;28;20128;-61
2023/06/13 01:22:19;;;;;;;5.40;3.50;;;11.70;99.90;;;;;;5075242;28;20040;-61
2023/06/13 01:25:20;;;;;;;5.35;3.67;;;11.60;99.90;;;;;;5075012;28;20036;-61
2023/06/13 01:27:49;;;;;;;5.38;4.05;;;11.70;99.90;;;;;;5072367;28;20044;-60
2023/06/13 01:30:18;;;;;;;6.30;4.00;;;11.60;99.90;;;;;;5054678;28;20536;-60
2023/06/13 01:32:51;;;;;;;6.10;3.70;;;11.60;99.90;;;;;;5079752;28;20413;-61
2023/06/13 01:35:18;;;;;;;5.50;3.50;;;11.50;99.90;;;;;;5078313;28;20134;-61
2023/06/13 01:37:45;;;;;;;7.43;3.65;;;11.40;99.90;;;;;;5082460;28;20542;-61
2023/06/13 01:40:14;;;;;;;6.95;3.95;;;11.40;99.90;;;;;;5054328;28;20044;-61
2023/06/13 01:42:41;;;;;;;6.15;3.78;;;11.40;99.90;;;;;;5054163;28;20048;-60
2023/06/13 01:45:09;;;;;;;7.25;3.72;;;11.40;99.90;;;;;;5072652;28;20043;-62
2023/06/13 01:47:56;;;;;;;5.55;3.83;;;11.40;99.90;;;;;;5079475;28;20396;-60
2023/06/13 01:50:59;;;;;;;7.38;4.53;;;11.40;99.90;;;;;;5078682;28;20047;-60
2023/06/13 01:53:36;;;;;;;5.88;3.47;;;11.30;99.90;;;;;;5074096;28;20052;-61
2023/06/13 01:56:08;;;;;;;8.15;3.85;;;11.30;99.90;;;;;;5061277;28;20064;-61
2023/06/13 01:58:43;;;;;;;6.57;4.20;;;11.30;99.90;;;;;;5065719;28;20044;-59
2023/06/13 02:01:11;;;;;;;6.18;3.63;;;11.20;99.90;;;;;;5079176;28;20127;-60
2023/06/13 02:03:38;;;;;;;6.95;4.22;;;11.10;99.90;;;;;;5074707;28;20066;-62
2023/06/13 02:06:05;;;;;;;;;;;11.10;99.90;;;;;;5062338;28;20409;-60
2023/06/13 02:08:32;;;;;;;7.55;3.90;;;11.00;99.90;;;;;;5079422;28;20359;-61
2023/06/13 02:11:06;;;;;;;5.57;3.60;;;11.00;99.90;;;;;;5054421;28;20049;-62
2023/06/13 02:13:32;;;;;;;7.30;4.03;;;11.00;99.90;;;;;;5053975;28;20420;-60
2023/06/13 02:15:59;;;;;;;8.02;3.90;;;11.00;99.90;;;;;;5070160;28;20149;-61
2023/06/13 02:18:27;;;;;;;4.18;3.40;;;11.00;99.90;;;;;;5071231;28;20366;-62
2023/06/13 02:20:54;;;;;;;7.18;3.80;;;10.90;99.90;;;;;;5071740;28;20501;-62
2023/06/13 02:23:21;;;;;;;6.70;3.85;;;10.80;99.90;;;;;;5071840;28;20052;-62
2023/06/13 02:25:49;;;;;;;8.43;4.10;;;10.80;99.90;;;;;;5060541;28;20524;-61
2023/06/13 02:28:16;;;;;;;7.85;4.43;;;10.70;99.90;;;;;;5071882;28;20040;-62
2023/06/13 02:30:47;;;;;;;6.30;3.65;;;10.70;99.90;;;;;;5066467;28;20412;-62
2023/06/13 02:33:15;;;;;;;;;;;10.70;99.90;;;;;;5059172;28;20055;-60
2023/06/13 02:35:45;;;;;;;6.07;3.50;;;10.60;99.90;;;;;;5073675;28;19921;-62
2023/06/13 02:38:12;;;;;;;5.15;3.42;;;10.60;99.90;;;;;;5053542;28;20040;-61
2023/06/13 02:40:39;;;;;;;7.47;4.55;;;10.50;99.90;;;;;;5071340;28;20052;-62
2023/06/13 02:43:08;;;;;;;8.70;4.57;;;10.50;99.90;;;;;;5062625;28;20044;-62
2023/06/13 02:45:36;;;;;;;6.93;3.75;;;10.40;99.90;;;;;;5070554;28;20090;-62
2023/06/13 02:48:02;;;;;;;6.53;4.25;;;10.40;99.90;;;;;;5069115;28;20062;-61
2023/06/13 02:50:30;;;;;;;6.00;3.85;;;10.40;99.90;;;;;;5070682;28;20052;-61
2023/06/13 02:52:56;;;;;;;6.95;3.75;;;10.40;99.90;;;;;;5072263;28;20094;-61
2023/06/13 02:55:24;;;;;;;6.63;4.25;;;10.40;99.90;;;;;;5071335;28;20051;-61
2023/06/13 02:57:51;;;;;;;5.53;3.95;;;10.40;99.90;;;;;;5061573;28;20048;-62
2023/06/13 03:00:18;;;;;;;8.82;4.22;;;10.30;99.90;;;;;;5078355;28;20060;-61
2023/06/13 03:02:52;;;;;;;6.80;4.00;;;10.30;99.90;;;;;;5053150;28;20503;-60
2023/06/13 03:05:20;;;;;;;5.75;3.75;;;10.40;99.90;;;;;;5056243;28;20064;-61
2023/06/13 03:07:50;;;;;;;7.18;4.05;;;10.40;99.90;;;;;;5061367;28;20047;-61
2023/06/13 03:10:23;;;;;;;8.82;4.15;;;10.40;99.90;;;;;;5061265;28;20048;-61
2023/06/13 03:12:50;;;;;;;5.78;3.95;;;10.40;99.90;;;;;;5052937;28;20056;-60
2023/06/13 03:15:17;;;;;;;6.43;3.95;;;10.40;99.90;;;;;;5071099;28;20063;-61
2023/06/13 03:17:46;;;;;;;9.63;4.03;;;10.40;99.90;;;;;;5069519;28;20412;-62
2023/06/13 03:20:16;;;;;;;7.68;4.25;;;10.30;99.90;;;;;;5052987;28;20041;-61
2023/06/13 03:22:55;;;;;;;8.23;4.47;;;10.30;99.90;;;;;;5069042;28;20488;-62
2023/06/13 03:25:22;;;;;;;7.95;3.97;;;10.30;99.90;;;;;;5059419;28;20075;-62
2023/06/13 03:27:49;;;;;;;6.57;4.60;;;10.30;99.90;;;;;;5070372;28;20040;-61
2023/06/13 03:30:17;;;;;;;5.78;3.88;;;10.20;99.90;;;;;;5070877;28;20082;-61
2023/06/13 03:32:44;;;;;;;4.70;3.58;;;10.20;99.90;;;;;;5063468;28;20036;-61
2023/06/13 03:35:11;;;;;;;6.53;4.32;;;10.20;99.90;;;;;;5073107;28;20123;-62
2023/06/13 03:37:38;;;;;;;6.07;3.90;;;10.20;99.90;;;;;;5060827;28;20052;-61
2023/06/13 03:40:05;;;;;;;8.00;4.30;;;10.20;99.90;;;;;;5076869;28;20044;-61
2023/06/13 03:42:33;;;;;;;10.63;4.05;;;10.20;99.90;;;;;;5065434;28;20060;-61
2023/06/13 03:45:00;;;;;;;6.10;4.28;;;10.20;99.90;;;;;;5081182;28;20389;-60
2023/06/13 03:47:27;;;;;;;6.30;3.60;;;10.20;99.90;;;;;;5079523;28;20070;-61
2023/06/13 03:49:54;;;;;;;6.10;4.43;;;10.10;99.90;;;;;;5066415;28;20039;-62
2023/06/13 03:52:22;;;;;;;9.57;4.43;;;10.10;99.90;;;;;;5076689;28;20041;-62
2023/06/13 03:54:51;;;;;;;7.07;4.22;;;10.10;99.90;;;;;;5063627;28;20043;-61
2023/06/13 03:57:18;;;;;;;8.50;4.07;;;10.10;99.90;;;;;;5078971;28;20048;-61
2023/06/13 03:59:45;;;;;;;6.47;3.97;;;10.00;99.90;;;;;;5068867;28;20040;-62
2023/06/13 04:02:13;;;;;;;5.57;3.97;;;9.90;99.90;;;;;;5061940;28;20072;-62
2023/06/13 04:04:44;;;;;;;6.10;4.05;;;9.90;99.90;;;;;;5062930;28;20043;-62
2023/06/13 04:07:15;;;;;;;7.57;4.55;;;10.00;99.90;;;;;;5080995;28;20115;-61
2023/06/13 04:09:44;;;;;;;5.80;4.13;;;10.00;99.90;;;;;;5081780;28;20048;-62
2023/06/13 04:12:11;;;;;;;9.68;4.53;;;10.10;99.90;;;;;;5063980;28;20481;-61
2023/06/13 04:14:38;;;;;;;7.35;3.63;;;10.10;99.90;;;;;;5065087;28;20511;-61
2023/06/13 04:17:06;;;;;;;7.30;4.20;;;10.10;99.90;;;;;;5068169;28;20032;-61
2023/06/13 04:19:34;;;;;;;8.02;4.03;;;10.20;99.90;;;;;;5065654;28;20078;-62
2023/06/13 04:22:05;;;;;;;5.65;3.85;;;10.20;99.90;;;;;;5068484;28;20126;-62
2023/06/13 04:24:32;;;;;;;8.60;4.35;;;10.40;99.90;;;;;;5072116;28;20050;-61
2023/06/13 04:27:03;;;;;;;;;;;10.40;99.90;;;;;;5079321;28;20064;-61
2023/06/13 04:29:31;;;;;;;9.77;4.10;;;10.40;99.90;;;;;;5074486;28;19920;-61
2023/06/13 04:31:57;;;;;;;5.78;4.03;;;10.40;99.90;;;;;;5073072;28;20118;-61
2023/06/13 04:34:24;;;;;;;7.78;4.47;;;10.50;99.90;;;;;;5072552;28;20046;-61
2023/06/13 04:36:55;;;;;;;8.32;4.25;;;10.50;99.90;;;;;;5088698;28;20040;-61
2023/06/13 04:39:26;;;;;;;10.57;4.85;;;10.40;99.90;;;;;;5086868;28;20052;-59
2023/06/13 04:41:55;;;;;;;6.53;4.32;;;10.40;99.90;;;;;;5081196;28;20044;-60
2023/06/13 04:44:25;;;;;;;7.65;4.78;;;10.50;99.90;;;;;;5088465;28;20040;-62
2023/06/13 04:46:57;;;;;;;6.70;4.35;;;10.60;99.90;;;;;;5093128;28;20036;-62
2023/06/13 04:49:25;;;;;;;8.63;4.30;;;10.60;99.90;;;;;;5087527;28;20045;-62
2023/06/13 04:51:54;;;;;;;5.88;3.97;;;10.70;99.90;;;;;;5063435;28;20044;-59
2023/06/13 04:54:21;;;;;;;9.15;4.78;;;10.70;99.90;;;;;;5053115;28;20119;-61
2023/06/13 04:56:49;;;;;;;9.80;4.40;;;10.80;99.90;;;;;;5081828;28;20098;-61
2023/06/13 04:59:16;;;;;;;9.93;4.25;;;10.80;99.90;;;;;;5080969;28;20044;-59
2023/06/13 05:01:43;;;;;;;8.23;4.40;;;10.90;99.90;;;;;;5085370;28;20040;-61
2023/06/13 05:04:10;;;;;;;8.07;4.60;;;11.00;99.90;;;;;;5080151;28;20098;-61
2023/06/13 05:06:37;;;;;;;7.82;4.43;;;11.10;99.90;;;;;;5071857;28;20041;-61
2023/06/13 05:09:07;;;;;;;7.78;4.70;;;11.20;99.90;;;;;;5076157;28;20484;-62
2023/06/13 05:11:35;;;;;;;7.78;4.18;;;11.30;99.90;;;;;;5089079;28;20044;-61
2023/06/13 05:14:01;;;;;;;10.73;4.28;;;11.40;99.90;;;;;;5073825;28;20449;-61
2023/06/13 05:16:29;;;;;;;9.00;4.35;;;11.40;99.90;;;;;;5072451;28;20048;-61
2023/06/13 05:18:57;;;;;;;12.00;5.43;;;11.50;99.90;;;;;;5078433;28;20044;-60
2023/06/13 05:21:24;;;;;;;6.63;4.43;;;11.60;99.90;;;;;;5081159;28;20033;-59
2023/06/13 05:23:51;;;;;;;9.77;5.15;;;11.70;99.90;;;;;;5080578;28;20044;-61
2023/06/13 05:26:18;;;;;;;9.95;5.20;;;11.80;99.90;;;;;;5080362;28;20501;-60
2023/06/13 05:28:45;;;;;;;8.18;5.20;;;11.70;99.90;;;;;;5086064;28;20055;-61
2023/06/13 05:31:13;;;;;;;7.95;5.05;;;11.70;99.90;;;;;;5072730;28;20048;-62
2023/06/13 05:33:40;;;;;;;8.75;4.70;;;12.00;99.90;;;;;;5074153;28;20494;-60
2023/06/13 05:36:07;;;;;;;9.23;4.70;;;12.10;99.90;;;;;;5072597;28;20059;-61
2023/06/13 05:38:34;;;;;;;7.25;4.75;;;12.20;99.90;;;;;;5054151;28;20036;-60
2023/06/13 05:41:00;;;;;;;9.73;4.78;;;12.20;99.90;;;;;;5072129;28;20051;-61
2023/06/13 05:43:27;;;;;;;9.30;5.20;;;12.20;99.90;;;;;;5074035;28;20048;-60
2023/06/13 05:45:54;;;;;;;11.30;5.03;;;12.20;99.90;;;;;;5078007;28;20037;-61
2023/06/13 05:48:21;;;;;;;9.38;5.30;;;12.30;99.90;;;;;;5074855;28;20052;-61
2023/06/13 05:50:48;;;;;;;13.90;6.00;;;12.40;99.90;;;;;;5081266;28;20049;-61
2023/06/13 05:53:14;;;;;;;10.15;5.10;;;12.50;99.90;;;;;;5072436;28;20043;-61
2023/06/13 05:55:41;;;;;;;7.40;5.00;;;12.50;99.90;;;;;;5072260;28;20408;-61
2023/06/13 05:58:08;;;;;;;13.85;5.28;;;12.60;99.90;;;;;;5079498;28;20044;-61
2023/06/13 06:00:35;;;;;;;16.92;5.40;;;12.70;99.90;;;;;;5080255;28;20044;-61
2023/06/13 06:03:05;;;;;;;5.68;4.68;;;12.80;99.90;;;;;;5089856;28;20097;-61
2023/06/13 06:05:32;;;;;;;11.23;4.55;;;12.80;99.90;;;;;;5091317;28;20052;-60
2023/06/13 06:07:59;;;;;;;9.68;4.45;;;12.80;99.90;;;;;;5078362;28;20072;-61
2023/06/13 06:10:26;;;;;;;8.25;4.93;;;12.80;99.90;;;;;;5071870;28;20127;-61
2023/06/13 06:12:53;;;;;;;11.25;5.57;;;12.90;99.90;;;;;;5071719;28;20435;-61
2023/06/13 06:15:19;;;;;;;9.93;5.15;;;13.00;99.90;;;;;;5074186;28;20060;-61
2023/06/13 06:17:46;;;;;;;10.60;4.70;;;13.10;99.90;;;;;;5074199;28;20098;-61
2023/06/13 06:20:13;;;;;;;10.82;5.07;;;13.20;99.90;;;;;;5072115;28;20043;-60
2023/06/13 06:22:40;;;;;;;;;;;13.30;99.90;;;;;;5072128;28;20094;-59
2023/06/13 06:25:12;;;;;;;6.78;4.32;;;13.40;99.90;;;;;;5071734;28;19920;-61
2023/06/13 06:27:43;;;;;;;9.88;4.60;;;13.50;99.90;;;;;;5076543;28;20037;-60
2023/06/13 06:30:10;;;;;;;8.27;4.22;;;13.50;99.90;;;;;;5081951;28;20117;-62
2023/06/13 06:32:37;;;;;;;10.55;4.43;;;13.60;99.90;;;;;;5080012;28;20052;-61
2023/06/13 06:35:04;;;;;;;11.75;4.57;;;13.60;99.90;;;;;;5071547;28;20048;-59
2023/06/13 06:37:32;;;;;;;10.57;4.70;;;13.60;99.90;;;;;;5071060;28;20131;-61
2023/06/13 06:39:59;;;;;;;12.38;5.03;;;13.80;99.90;;;;;;5078140;28;20374;-61
2023/06/13 06:42:26;;;;;;;;;;;13.90;99.90;;;;;;5071793;28;20044;-60
2023/06/13 06:45:02;;;;;;;11.45;4.80;;;14.00;99.90;;;;;;5053431;28;20040;-61
2023/06/13 06:47:29;;;;;;;16.67;4.90;;;14.20;99.90;;;;;;5083806;28;20051;-61
2023/06/13 06:49:56;;;;;;;10.88;4.75;;;14.30;99.90;;;;;;5082153;28;20047;-60
2023/06/13 06:52:23;;;;;;;9.00;4.25;;;14.40;99.90;;;;;;5083558;28;20032;-61
2023/06/13 06:54:50;;;;;;;11.63;4.53;;;14.50;99.90;;;;;;5091730;28;20492;-61
2023/06/13 06:57:16;;;;;;;11.55;5.10;;;14.80;99.90;;;;;;5072201;28;20045;-61
2023/06/13 06:59:46;;;;;;;10.90;4.40;;;14.70;99.90;;;;;;5071850;28;20466;-60
2023/06/13 07:02:13;;;;;;;10.65;5.35;;;14.90;99.90;;;;;;5087893;28;20051;-61
2023/06/13 07:04:40;;;;;;;7.82;4.22;;;15.00;99.90;;;;;;5071527;28;20732;-61
2023/06/13 07:07:07;;;;;;;9.00;5.13;;;15.00;99.90;;;;;;5078293;28;20389;-61
2023/06/13 07:09:34;;;;;;;10.23;4.97;;;15.10;99.90;;;;;;5070980;28;20028;-61
2023/06/13 07:12:00;;;;;;;10.73;4.28;;;15.20;99.90;;;;;;5070819;28;20037;-61
2023/06/13 07:14:27;;;;;;;9.18;4.25;;;15.30;99.90;;;;;;5077929;28;20052;-61
2023/06/13 07:16:54;;;;;;;9.88;4.75;;;15.40;99.90;;;;;;5078250;28;20055;-62
2023/06/13 07:19:23;;;;;;;10.35;4.75;;;15.50;99.90;;;;;;5075615;28;20037;-61
2023/06/13 07:21:50;;;;;;;8.63;5.07;;;15.60;99.90;;;;;;5075061;28;20102;-62
2023/06/13 07:24:16;;;;;;;7.80;4.68;;;15.70;99.90;;;;;;5078143;28;20048;-62
2023/06/13 07:26:43;;;;;;;7.60;4.15;;;15.70;99.90;;;;;;5074793;28;20077;-62
2023/06/13 07:29:10;;;;;;;8.60;4.75;;;15.80;99.90;;;;;;5074900;28;20036;-61
2023/06/13 07:31:37;;;;;;;11.85;4.88;;;15.80;99.90;;;;;;5074123;28;20396;-62
2023/06/13 07:34:04;;;;;;;9.65;4.85;;;15.90;99.90;;;;;;5084881;28;20056;-62
2023/06/13 07:36:41;;;;;;;10.85;4.80;;;16.00;99.90;;;;;;5079487;28;20044;-62
2023/06/13 07:39:14;;;;;;;8.75;4.45;;;16.20;99.90;;;;;;5073616;28;20044;-62
2023/06/13 07:41:44;;;;;;;8.85;3.97;;;16.30;99.90;;;;;;5073994;28;20097;-62
2023/06/13 07:44:11;;;;;;;6.28;3.95;;;16.50;99.90;;;;;;5075016;28;20111;-60
2023/06/13 07:46:38;;;;;;;13.02;4.97;;;16.60;99.90;;;;;;5078875;28;20044;-62
2023/06/13 07:49:04;;;;;;;8.00;4.07;;;16.80;99.90;;;;;;5074603;28;20119;-62
2023/06/13 07:51:32;;;;;;;6.35;4.03;;;16.90;99.90;;;;;;5076135;28;20037;-61
2023/06/13 07:53:59;;;;;;;11.52;4.22;;;17.00;99.90;;;;;;5074650;28;20032;-61
2023/06/13 07:56:26;;;;;;;7.20;4.10;;;17.10;99.90;;;;;;5082997;28;20040;-60
2023/06/13 07:58:53;;;;;;;8.15;4.32;;;17.20;99.90;;;;;;5074649;28;20044;-62
2023/06/13 08:01:21;;;;;;;8.38;4.35;;;17.30;99.90;;;;;;5087281;28;20512;-62
2023/06/13 08:03:48;;;;;;;7.88;3.67;;;17.30;99.90;;;;;;5074661;28;20041;-62
2023/06/13 08:06:15;;;;;;;;;;;17.30;99.90;;;;;;5074160;28;20048;-62
2023/06/13 08:08:42;;;;;;;11.98;3.78;;;17.30;99.90;;;;;;5078057;28;19952;-62
2023/06/13 08:11:09;;;;;;;7.68;4.00;;;17.40;99.90;;;;;;5091635;28;20105;-62
2023/06/13 08:13:36;;;;;;;11.48;4.43;;;17.40;99.90;;;;;;5074156;28;20676;-61
2023/06/13 08:16:03;;;;;;;8.23;3.90;;;17.40;99.90;;;;;;5055614;28;20131;-62
2023/06/13 08:18:30;;;;;;;7.97;3.20;;;17.50;99.90;;;;;;5074349;28;20545;-62
2023/06/13 08:20:57;;;;;;;7.53;3.95;;;17.50;99.90;;;;;;5084337;28;20055;-61
2023/06/13 08:23:24;;;;;;;17.65;4.35;;;17.50;99.90;;;;;;5074417;28;20037;-62
2023/06/13 08:25:50;;;;;;;8.05;4.30;;;17.60;99.90;;;;;;5073368;28;20033;-62
2023/06/13 08:28:17;;;;;;;7.88;3.90;;;17.70;99.90;;;;;;5073453;28;20045;-62
2023/06/13 08:30:45;;;;;;;8.02;4.05;;;17.80;99.90;;;;;;5074306;28;20045;-61
2023/06/13 08:33:13;;;;;;;8.68;4.35;;;17.90;99.90;;;;;;5073794;28;20040;-61
2023/06/13 08:35:40;;;;;;;7.60;3.90;;;18.00;99.90;;;;;;5055700;28;20056;-61
2023/06/13 08:38:07;;;;;;;7.75;3.45;;;18.00;99.90;;;;;;5078009;28;20105;-61
2023/06/13 08:40:34;;;;;;;9.48;4.55;;;18.10;99.90;;;;;;5074370;28;20049;-62
2023/06/13 08:43:02;;;;;;;6.45;3.78;;;18.10;99.90;;;;;;5073620;28;20039;-62
2023/06/13 08:45:29;;;;;;;7.07;4.07;;;18.20;99.90;;;;;;5073707;28;20036;-62
2023/06/13 08:47:56;;;;;;;7.85;3.80;;;18.30;99.90;;;;;;5076185;28;20058;-62
2023/06/13 08:50:24;;;;;;;8.88;3.35;;;18.40;99.90;;;;;;5074111;28;20248;-61
2023/06/13 08:52:54;;;;;;;8.13;3.95;;;18.40;99.90;;;;;;5073627;28;20124;-62
2023/06/13 08:55:23;;;;;;;7.28;3.63;;;18.40;99.90;;;;;;5074713;28;20047;-61
2023/06/13 08:58:13;;;;;;;7.05;4.07;;;18.40;99.90;;;;;;5073396;28;20477;-61
2023/06/13 09:00:41;;;;;;;6.63;4.10;;;18.50;99.90;;;;;;5072866;28;20114;-63
2023/06/13 09:03:12;;;;;;;;;;;18.60;99.90;;;;;;5076332;28;20396;-61
2023/06/13 09:05:39;;;;;;;8.13;3.80;;;18.70;99.90;;;;;;5078466;28;19920;-60
2023/06/13 09:08:08;;;;;;;9.63;5.07;;;18.70;99.90;;;;;;5072691;28;20028;-62
2023/06/13 09:10:56;;;;;;;6.40;3.20;;;18.80;99.90;;;;;;5072098;28;20082;-62
2023/06/13 09:13:24;;;;;;;9.48;4.05;;;18.70;99.90;;;;;;5078976;28;20040;-62
2023/06/13 09:15:51;;;;;;;8.70;3.53;;;18.90;99.90;;;;;;5073175;28;20051;-61
2023/06/13 09:18:19;;;;;;;9.18;3.20;;;18.90;99.90;;;;;;5072891;28;20052;-62
2023/06/13 09:20:46;;;;;;;11.02;4.00;;;18.90;99.90;;;;;;5075191;28;20050;-62
2023/06/13 09:23:17;;;;;;;7.65;3.70;;;18.90;99.90;;;;;;5083566;28;20041;-61
2023/06/13 09:25:48;;;;;;;9.90;3.00;;;18.90;99.90;;;;;;5072823;28;20039;-60
2023/06/13 09:28:37;;;;;;;11.73;3.35;;;19.00;99.90;;;;;;5072806;28;20044;-60
2023/06/13 09:31:04;;;;;;;5.68;3.60;;;19.20;99.90;;;;;;5077222;28;20051;-62
2023/06/13 09:33:31;;;;;;;7.07;3.88;;;19.30;99.90;;;;;;5072294;28;20544;-62
2023/06/13 09:35:58;;;;;;;7.20;3.92;;;19.40;99.90;;;;;;5072908;28;20051;-61
2023/06/13 09:38:45;;;;;;;7.00;3.55;;;19.40;99.90;;;;;;5075411;28;20036;-61
2023/06/13 09:41:13;;;;;;;7.60;4.32;;;19.40;99.90;;;;;;5074045;28;20405;-61
2023/06/13 09:43:41;;;;;;;5.88;3.38;;;19.50;99.90;;;;;;5072336;28;20504;-61
2023/06/13 09:46:12;;;;;;;8.75;3.63;;;19.50;99.90;;;;;;5073012;28;20367;-61
2023/06/13 09:48:47;;;;;;;13.02;3.83;;;19.50;99.90;;;;;;5078483;28;20037;-61
2023/06/13 09:51:13;;;;;;;6.78;3.42;;;19.60;99.90;;;;;;5072313;28;20044;-61
2023/06/13 09:53:43;;;;;;;6.30;3.63;;;19.70;99.90;;;;;;5072132;28;20048;-62
2023/06/13 09:56:10;;;;;;;8.50;3.40;;;19.80;99.90;;;;;;5072593;28;20123;-62
2023/06/13 09:58:38;;;;;;;;;;;19.90;99.90;;;;;;5087766;28;20048;-60
2023/06/13 10:01:11;;;;;;;6.35;2.95;;;20.00;99.90;;;;;;5071669;28;19924;-60
2023/06/13 10:03:38;;;;;;;11.35;3.67;;;20.10;99.90;;;;;;5079585;28;20029;-62
2023/06/13 10:06:05;;;;;;;8.57;3.90;;;20.20;99.90;;;;;;5078959;28;20033;-62
2023/06/13 10:08:34;;;;;;;9.02;3.78;;;20.10;99.90;;;;;;5072059;28;20478;-61
2023/06/13 10:11:06;;;;;;;7.68;4.10;;;20.20;99.90;;;;;;5079796;28;20572;-61
2023/06/13 10:13:45;;;;;;;8.35;3.55;;;20.40;99.90;;;;;;5073267;28;20098;-62
2023/06/13 10:16:13;;;;;;;7.93;3.63;;;20.30;99.90;;;;;;5072487;28;20119;-62
2023/06/13 10:18:44;;;;;;;5.70;3.65;;;20.30;99.90;;;;;;5082245;28;20529;-62
2023/06/13 10:21:13;;;;;;;8.15;4.10;;;20.30;99.90;;;;;;5071740;28;20428;-62
2023/06/13 10:23:48;;;;;;;9.05;3.22;;;20.40;99.90;;;;;;5079217;28;20037;-61
2023/06/13 10:26:39;;;;;;;5.70;3.45;;;20.40;99.90;;;;;;5071360;28;20630;-62
2023/06/13 10:29:27;;;;;;;8.73;3.63;;;20.50;99.90;;;;;;5071827;28;20043;-62
2023/06/13 10:32:00;;;;;;;;;;;20.40;99.90;;;;;;5070666;28;20055;-61
2023/06/13 10:34:36;;;;;;;5.35;3.53;;;20.40;99.90;;;;;;5078653;28;20290;-62
2023/06/13 10:37:31;;;;;;;7.82;3.92;;;20.40;99.90;;;;;;5071772;28;20456;-61
2023/06/13 10:40:39;;;;;;;5.30;3.40;;;20.40;99.90;;;;;;5071502;28;20048;-62
2023/06/13 10:43:33;;;;;;;6.63;3.28;;;20.30;99.90;;;;;;5073906;28;21035;-61
2023/06/13 10:46:05;;;;;;;8.43;3.70;;;20.50;99.90;;;;;;5092053;28;20037;-62
2023/06/13 10:48:51;;;;;;;8.40;3.90;;;20.60;99.90;;;;;;5072856;28;20044;-60
2023/06/13 10:51:23;;;;;;;6.00;3.88;;;20.60;99.90;;;;;;5071276;28;20049;-62
2023/06/13 10:54:01;;;;;;;5.65;3.75;;;20.70;99.90;;;;;;5071248;28;20047;-60
2023/06/13 10:56:32;;;;;;;6.75;4.00;;;20.70;99.90;;;;;;5076256;28;20416;-60
2023/06/13 10:59:04;;;;;;;6.78;3.63;;;20.70;99.60;;;;;;5075062;28;20548;-62
2023/06/13 11:01:36;;;;;;;5.95;3.33;;;20.80;99.90;;;;;;5071033;28;20063;-60
2023/06/13 11:04:16;;;;;;;8.05;3.47;;;20.90;99.90;;;;;;5071347;28;20040;-62
2023/06/13 11:06:45;;;;;;;7.13;3.55;;;20.90;99.90;;;;;;5076964;28;20045;-59
2023/06/13 11:09:21;;;;;;;6.93;3.25;;;20.90;99.30;;;;;;5070682;28;20407;-60
2023/06/13 11:11:57;;;;;;;7.97;2.90;;;21.00;99.90;;;;;;5070967;28;20037;-60
2023/06/13 11:14:32;;;;;;;4.63;3.20;;;20.90;98.70;;;;;;5077349;28;20055;-60
2023/06/13 11:17:01;;;;;;;6.32;3.33;;;20.90;98.50;;;;;;5071445;28;20051;-60
2023/06/13 11:19:28;;;;;;;7.55;3.55;;;20.90;98.40;;;;;;5070380;28;20500;-61
2023/06/13 11:21:58;;;;;;;;;;;21.00;98.60;;;;;;5075444;28;20047;-62
2023/06/13 11:24:27;;;;;;;4.38;3.10;;;20.90;99.40;;;;;;5079097;28;20011;-61
2023/06/13 11:26:57;;;;;;;5.70;3.42;;;21.10;98.60;;;;;;5071470;28;20090;-61
2023/06/13 11:29:23;;;;;;;6.97;3.33;;;21.20;98.80;;;;;;5070549;28;20040;-61
2023/06/13 11:31:54;;;;;;;7.82;3.00;;;21.40;99.10;;;;;;5073513;28;20127;-61
2023/06/13 11:34:24;;;;;;;5.97;3.50;;;21.50;98.20;;;;;;5077480;28;20062;-62
2023/06/13 11:36:57;;;;;;;9.18;3.17;;;21.40;98.40;;;;;;5071014;28;20103;-61
2023/06/13 11:39:29;;;;;;;6.13;3.20;;;21.40;98.50;;;;;;5075666;28;20516;-61
2023/06/13 11:42:00;;;;;;;7.75;3.40;;;21.40;97.30;;;;;;5070600;28;20039;-61
2023/06/13 11:44:27;;;;;;;5.45;3.20;;;21.40;97.50;;;;;;5070430;28;20202;-61
2023/06/13 11:46:54;;;;;;;6.45;3.63;;;21.40;98.80;;;;;;5075911;28;20051;-61
2023/06/13 11:49:21;;;;;;;;;;;21.60;97.20;;;;;;5073228;28;20041;-60
2023/06/13 11:51:51;;;;;;;6.45;3.38;;;21.50;97.20;;;;;;5070873;28;20007;-60
2023/06/13 11:54:27;;;;;;;14.85;3.33;;;21.60;97.00;;;;;;5070987;28;20051;-61
2023/06/13 11:56:53;;;;;;;9.43;3.30;;;21.50;96.10;;;;;;5074349;28;20048;-61
2023/06/13 11:59:22;;;;;;;6.68;3.22;;;21.70;97.60;;;;;;5073286;28;20132;-62
2023/06/13 12:01:52;;;;;;;5.82;3.65;;;21.70;96.50;;;;;;5052535;28;20056;-61
2023/06/13 12:04:24;;;;;;;5.68;3.50;;;21.70;95.70;;;;;;5072981;28;20072;-61
2023/06/13 12:06:52;;;;;;;5.50;3.13;;;21.80;95.50;;;;;;5079406;28;20238;-62
2023/06/13 12:09:19;;;;;;;4.78;3.10;;;21.80;95.90;;;;;;5077080;28;20671;-61
2023/06/13 12:11:47;;;;;;;7.15;3.47;;;21.70;95.80;;;;;;5075291;28;20048;-61
2023/06/13 12:14:13;;;;;;;;;;;21.70;96.20;;;;;;5078362;28;20044;-61
2023/06/13 12:16:40;;;;;;;8.15;3.75;;;21.80;96.00;;;;;;5073453;28;19921;-62
2023/06/13 12:19:09;;;;;;;5.13;2.90;;;21.80;95.70;;;;;;5074040;28;20040;-58
2023/06/13 12:21:38;;;;;;;6.75;3.55;;;21.80;95.50;;;;;;5079363;28;20076;-62
2023/06/13 12:24:07;;;;;;;7.20;3.40;;;21.90;94.20;;;;;;5074113;28;20056;-61
2023/06/13 12:26:38;;;;;;;5.32;3.20;;;21.90;94.30;;;;;;5077757;28;20052;-61
2023/06/13 12:29:06;;;;;;;9.70;3.35;;;22.00;95.00;;;;;;5088878;28;20047;-61
2023/06/13 12:31:37;;;;;;;6.75;3.22;;;22.00;94.90;;;;;;5091397;28;20365;-62
2023/06/13 12:34:08;;;;;;;3.53;3.22;;;22.00;95.30;;;;;;5087737;28;20090;-61
2023/06/13 12:36:44;;;;;;;6.70;3.40;;;22.00;93.80;;;;;;5074822;28;20127;-61
2023/06/13 12:39:12;;;;;;;6.28;3.55;;;22.20;95.20;;;;;;5073219;28;20047;-61
2023/06/13 12:41:50;;;;;;;5.97;3.20;;;22.20;93.30;;;;;;5073595;28;20032;-61
2023/06/13 12:44:21;;;;;;;6.82;3.13;;;22.30;94.30;;;;;;5076017;28;20037;-61
2023/06/13 12:46:51;;;;;;;5.47;3.38;;;22.50;94.20;;;;;;5073881;28;20029;-62
2023/06/13 12:49:22;;;;;;;8.35;3.28;;;22.50;93.70;;;;;;5073073;28;20032;-60
2023/06/13 12:51:54;;;;;;;5.28;3.30;;;22.50;93.70;;;;;;5073657;28;20111;-62
2023/06/13 12:54:25;;;;;;;6.20;3.40;;;22.50;92.60;;;;;;5073144;28;20059;-61
2023/06/13 12:56:54;;;;;;;7.25;3.72;;;22.60;93.10;;;;;;5073286;28;20406;-59
2023/06/13 12:59:54;;;;;;;6.32;3.65;;;22.70;94.00;;;;;;5073245;28;20142;-61
2023/06/13 13:02:23;;;;;;;6.95;3.25;;;22.80;94.10;;;;;;5069630;28;20056;-60